Warning: Javascript must be enabled to use all the features on this page!


Page Loading - Please Wait...

Click to hideNews Bulletins

Streamflow Measurements for the Nation


USGS 11455140 TOE DRAIN A LIBERTY ISLAND NR COURTLAND CA


Yolo County, California
Hydrologic Unit Code 18020163
Latitude  38°20'57", Longitude 121°38'41" NAD83
Gage datum .16 feet above NAVD88
Output formats
HTML table with channel data
HTML table without channel data
Tab-separated data with channel data
Tab-separated data without channel data
Graph of data
Reselect output format
Meas.
Number
  Date       Time Time
Datum
Measurement
Used?
  Who Measuring
Agency
Stream
flow
(ft3/s)
Gage
Height
(ft)
GH
Change
(ft)
Meas.
Duration
(hr)
Meas.
Rated
  Control Flow
Adjust.
Code
 
2472020-10-27 13:18:15PSTYesJEH/EBDUSGS-11104.11 Poor NONE
2462020-10-27 13:16:13PSTYesJEH/EBDUSGS-9434.09 Poor NONE
2452020-10-27 13:13:56PSTYesJEH/EBDUSGS-10504.08 Poor NONE
2442020-10-27 13:11:12PSTYesJEH/EBDUSGS-9794.05 Poor NONE
2432020-10-27 13:07:15PSTYesJEH/EBDUSGS-11904.01 Poor NONE
2422020-10-27 13:04:37PSTYesJEH/EBDUSGS-10303.99 Poor NONE
2412020-10-27 12:50:36PSTYesJEH/EBDUSGS-8093.87 Poor NONE
2402020-10-27 12:47:23PSTYesJEH/EBDUSGS-9923.85 Poor NONE
2392020-10-27 12:37:04PSTYesJEH/EBDUSGS-10603.76 Poor NONE
2382020-10-27 12:33:54PSTYesJEH/EBDUSGS-10203.73 Poor NONE
2372020-10-27 12:30:41PSTYesJEH/EBDUSGS-9303.70 Poor NONE
2362020-10-27 12:27:32PSTYesJEH/EBDUSGS-10703.68 Poor NONE
2352020-10-27 12:24:37PSTYesJEH/EBDUSGS-12303.65 Poor NONE
2342020-10-27 12:22:07PSTYesJEH/EBDUSGS-9683.63 Poor NONE
2332020-10-27 12:19:55PSTYesJEH/EBDUSGS-9423.61 Poor NONE
2322020-10-27 12:17:37PSTYesJEH/EBDUSGS-11503.59 Poor NONE
2312020-08-27 13:56:45PSTYesJEH/EBDUSGS-8865.40 Poor NONE
2302020-08-27 13:53:27PSTYesJEH/EBDUSGS-6625.39 Poor NONE
2292020-08-27 13:50:11PSTYesJEH/EBDUSGS-9215.37 Poor NONE
2282020-08-27 13:46:51PSTYesJEH/EBDUSGS-6615.35 Poor NONE
2272020-08-27 13:41:12PSTYesJEH/EBDUSGS-10205.32 Poor NONE
2262020-08-27 13:37:44PSTYesJEH/EBDUSGS-8565.29 Poor NONE
2252020-08-27 13:32:15PSTYesJEH/EBDUSGS-10005.26 Poor NONE
2242020-08-27 13:28:46PSTYesJEH/EBDUSGS-7985.23 Poor NONE
2232020-06-11 12:29:26PSTYesNVB/ACUSGS10204.22 Poor NONE
2222020-06-11 12:25:29PSTYesNVB/ACUSGS10104.25 Poor NONE
2212020-06-11 12:20:58PSTYesNVB/ACUSGS9974.29 Poor NONE
2202020-06-11 12:16:52PSTYesNVB/ACUSGS9554.33 Poor NONE
2192020-06-11 12:13:03PSTYesNVB/ACUSGS10204.36 Poor NONE
2182020-06-11 12:09:51PSTYesNVB/ACUSGS10104.39 Poor NONE
2172020-03-03 15:12:40PSTYesHR, TVUSGS10204.15 Poor NONE
2162020-03-03 15:08:38PSTYesHR, TVUSGS10704.18 Poor NONE
2152020-03-03 15:03:52PSTYesHR, TVUSGS11804.22 Poor NONE
2142020-03-03 14:59:23PSTYesHR, TVUSGS10804.26 Poor NONE
2132020-03-03 14:55:26PSTYesHR, TVUSGS10704.29 Poor NONE
2122020-03-03 14:51:30PSTYesHR, TVUSGS9264.32 Poor NONE
2112019-12-17 14:55:03PSTYesTV/HRUSGS8813.65 Poor NONE
2102019-12-17 14:52:14PSTYesTV/HRUSGS9253.66 Poor NONE
2092019-12-17 14:47:33PSTYesTV/HRUSGS9123.70 Poor NONE
2082019-12-17 14:44:37PSTYesTV/HRUSGS9783.71 Poor NONE
2072019-12-17 14:39:36PSTYesTV/HRUSGS11103.75 Poor NONE
2062019-12-17 14:36:47PSTYesTV/HRUSGS11003.77 Poor NONE
2052019-11-07 13:44:55PSTYesJH/SLUSGS-12805.26 Poor NONE
2042019-11-07 13:42:08PSTYesJH/SLUSGS-14405.23 Poor NONE
2032019-11-07 13:39:41PSTYesJH/SLUSGS-16905.21 Poor NONE
2022019-11-07 13:36:08PSTYesJH/SLUSGS-15005.18 Poor NONE
2012019-11-07 13:32:49PSTYesJH/SLUSGS-10805.15 Poor NONE
2002019-11-07 13:29:19PSTYesJH/SLUSGS-15405.12 Poor NONE
1992019-07-12 13:31:36PSTYesJH/HRUSGS-9594.48 Poor NONE
1982019-07-12 13:29:01PSTYesJH/HRUSGS-9524.47 Poor NONE
1972019-07-12 13:26:39PSTYesJH/HRUSGS-10904.46 Poor NONE
1962019-07-12 13:24:35PSTYesJH/HRUSGS-11704.45 Poor NONE
1952019-07-12 13:21:54PSTYesJH/HRUSGS-10104.43 Poor NONE
1942019-07-12 13:18:49PSTYesJH/HRUSGS-11104.39 Poor NONE
1932018-09-25 13:20:26PSTYesRPJ,ACUSGS-3133.09 Poor NONE
1922018-09-25 13:15:32PSTYesRPJ,ACUSGS-2483.04 Poor NONE
1912018-09-25 13:09:55PSTYesRPJ,ACUSGS43.82.98 Poor NONE
1902018-09-25 13:04:18PSTYesRPJ,ACUSGS1752.94 Poor NONE
1892018-09-25 12:53:48PSTYesRPJ,ACUSGS5292.86 Poor NONE
1882018-09-25 12:48:37PSTYesRPJ,ACUSGS5062.84 Poor NONE
1872018-09-25 12:37:31PSTYesRPJ,ACUSGS7832.82 Poor NONE
1862018-09-25 12:31:24PSTYesRPJ,ACUSGS7422.82 Poor NONE
1852018-09-25 12:08:13PSTYesRPJ,ACUSGS10602.90 Poor NONE
1842018-09-25 12:01:42PSTYesRPJ,ACUSGS9642.94 Poor NONE
1832018-09-25 11:44:40PSTYesRPJ,ACUSGS10703.06 Fair NONE
1822018-09-25 11:39:39PSTYesRPJ,ACUSGS10503.10 Good NONE
1812018-09-25 11:35:17PSTYesRPJ,ACUSGS9953.13 Poor NONE
1802018-09-25 11:31:39PSTYesRPJ,ACUSGS9333.16 Good NONE
1792018-09-25 11:19:54PSTYesRPJ,ACUSGS10903.25 Good NONE
1782018-09-25 11:16:11PSTYesRPJ,ACUSGS10203.28 Poor NONE
1772018-09-13 14:11:41PSTYesJH/RJ/HRUSGS11103.21 Unspecified NONE
1762018-09-13 14:08:59PSTYesJH/RJ/HRUSGS11203.22 Unspecified NONE
1752018-09-13 14:05:33PSTYesJH/RJ/HRUSGS11003.24 Unspecified NONE
1742018-09-13 14:02:20PSTYesJH/RJ/HRUSGS12403.26 Unspecified NONE
1732018-09-13 13:58:31PSTYesJH/RJ/HRUSGS11203.28 Unspecified NONE
1722018-09-13 13:55:26PSTYesJH/RJ/HRUSGS10903.30 Unspecified NONE
1712018-05-14 14:18PSTYesNVB/MIUSGS-12503.90 Unspecified NONE
1702018-05-14 14:12PSTYesNVB/MIUSGS-12703.84 Unspecified NONE
1692018-05-14 14:09PSTYesNVB/MIUSGS-12903.80 Unspecified NONE
1682018-05-14 14:06PSTYesNVB/MIUSGS-13003.78 Unspecified NONE
1672018-05-14 14:03PSTYesNVB/MIUSGS-11903.74 Unspecified NONE
1662018-05-14 13:58PSTYesNVB/MIUSGS-12603.70 Unspecified NONE
1652018-05-14 13:55PSTYesNVB/MIUSGS-12703.68 Unspecified NONE
1642018-05-14 13:51PSTYesNVB/MIUSGS-11503.63 Unspecified NONE
1632018-05-14 13:48PSTYesNVB/MIUSGS-10403.60 Unspecified NONE
1622018-05-14 13:43PSTYesNVB/MIUSGS-9513.56 Unspecified NONE
1612018-05-14 13:39PSTYesNVB/MIUSGS-9633.52 Unspecified NONE
1602018-05-14 13:34PSTYesNVB/MIUSGS-8713.47 Unspecified NONE
1592018-05-14 13:31PSTYesNVB/MIUSGS-9283.44 Unspecified NONE
1582018-05-14 13:26PSTYesNVB/MIUSGS-7323.40 Unspecified NONE
1572018-05-14 13:23PSTYesNVB/MIUSGS-6773.37 Unspecified NONE
1562018-05-14 13:19PSTYesNVB/MIUSGS-6393.33 Unspecified NONE
1552018-05-14 13:16PSTYesNVB/MIUSGS-5843.30 Unspecified NONE
1542018-05-14 13:13PSTYesNVB/MIUSGS-5503.26 Unspecified NONE
1532018-05-14 13:09PSTYesNVB/MIUSGS-3823.23 Unspecified NONE
1522018-05-14 13:05PSTYesNVB/MIUSGS-2323.16 Unspecified NONE
1512018-05-14 13:02PSTYesNVB/MIUSGS-2323.14 Unspecified NONE
1502018-05-14 12:59PSTYesNVB/MIUSGS-87.13.10 Unspecified NONE
1492018-05-14 12:55PSTYesNVB/MIUSGS85.93.06 Unspecified NONE
1482018-05-14 12:50PSTYesNVB/MIUSGS2213.01 Unspecified NONE
1472018-05-14 12:46PSTYesNVB/MIUSGS3842.99 Unspecified NONE
1462018-05-14 12:43PSTYesNVB/MIUSGS4052.97 Unspecified NONE
1452018-05-14 12:37PSTYesNVB/MIUSGS5172.92 Unspecified NONE
1442018-05-14 12:33PSTYesNVB/MIUSGS4812.91 Unspecified NONE
1432018-05-14 12:28PSTYesNVB/MIUSGS6592.89 Unspecified NONE
1422018-05-14 12:25PSTYesNVB/MIUSGS6412.89 Unspecified NONE
1412018-05-14 12:22PSTYesNVB/MIUSGS6762.89 Unspecified NONE
1402018-05-14 12:15PSTYesNVB/MIUSGS7892.89 Unspecified NONE
1392018-05-14 11:54PSTYesNVB/MIUSGS9382.96 Unspecified NONE
1382018-05-14 11:50PSTYesNVB/MIUSGS11802.98 Unspecified NONE
1372018-05-14 11:47PSTYesNVB/MIUSGS8852.99 Unspecified NONE
1362018-05-14 11:42PSTYesNVB/MIUSGS12503.03 Unspecified NONE
1352018-05-14 11:15PSTYesNVB/MIUSGS11503.22 Unspecified NONE
1342018-05-14 11:12PSTYesNVB/MIUSGS9343.25 Unspecified NONE
1332018-05-14 11:09PSTYesNVB/MIUSGS12003.27 Unspecified NONE
1322018-05-14 11:06PSTYesNVB/MIUSGS11703.30 Unspecified NONE
1312018-05-14 09:55PSTYesNVB/MIUSGS11803.89 Unspecified NONE
1302018-05-14 09:52PSTYesNVB/MIUSGS11403.93 Unspecified NONE
1292017-10-26 13:58:43PSTYesRPJ,NVBUSGS6454.38 Unspecified NONE
1282017-10-26 13:47:18PSTYesRPJ,NVBUSGS7924.45 Unspecified NONE
1272017-10-26 13:41:56PSTYesRPJ,NVBUSGS7914.49 Unspecified NONE
1262017-10-26 13:36:32PSTYesRPJ,NVBUSGS8044.53 Unspecified NONE
1252017-10-26 13:32:27PSTYesRPJ,NVBUSGS7904.55 Unspecified NONE
1242017-10-26 13:27:42PSTYesRPJ,NVBUSGS7104.59 Unspecified NONE
1232017-08-30 12:40PSTYesnanUSGS-482 Poor NONE
1222017-08-30 12:33PSTYesnanUSGS-497 Poor NONE
1212017-08-30 12:11PSTYesnanUSGS-717 Poor NONE
1202017-08-30 12:02PSTYesnanUSGS-666 Poor NONE
1192017-08-30 11:55PSTYesnanUSGS-650 Poor NONE
1182017-08-30 11:48PSTYesnanUSGS-723 Poor NONE
1172016-01-05 21:09:17PSTYesTV,RJUSGS12304.75 Fair NONE
1162016-01-05 21:04:27PSTYesTV,RJUSGS13004.75 Fair NONE
1152016-01-05 21:01:34PSTYesTV,RJUSGS12204.78 Fair NONE
1142016-01-05 20:58:41PSTYesTV,RJUSGS13204.80 Fair NONE
1132016-01-05 20:31:37PSTYesTV,RJUSGS14205.02 Fair NONE
1122016-01-05 20:28:27PSTYesTV,RJUSGS15605.04 Fair NONE
1112016-01-05 20:24:43PSTYesTV,RJUSGS14305.07 Fair NONE
1102016-01-05 20:20:57PSTYesTV,RJUSGS14005.11 Fair NONE
1092016-01-05 19:55:02PSTYesTV,RJUSGS15405.33 Fair NONE
1082016-01-05 19:51:04PSTYesTV,RJUSGS15105.37 Fair NONE
1072016-01-05 19:47:17PSTYesTV,RJUSGS15905.40 Fair NONE
1062016-01-05 19:43:07PSTYesTV,RJUSGS15805.44 Fair NONE
1052016-01-05 19:12:38PSTYesTV,RJUSGS14205.72 Fair NONE
1042016-01-05 19:09:50PSTYesTV,RJUSGS15105.75 Fair NONE
1032016-01-05 19:07:07PSTYesTV,RJUSGS16505.77 Fair NONE
1022016-01-05 19:04:14PSTYesTV,RJUSGS15705.79 Fair NONE
1012016-01-05 18:39:28PSTYesTV,RJUSGS15806.04 Fair NONE
1002016-01-05 18:36:03PSTYesTV,RJUSGS16006.08 Fair NONE
992016-01-05 18:32:37PSTYesTV,RJUSGS15906.11 Fair NONE
982016-01-05 18:29:44PSTYesTV,RJUSGS17406.14 Fair NONE
972016-01-05 17:59:26PSTYesTV,RJUSGS17506.45 Fair NONE
962016-01-05 17:55:52PSTYesTV,RJUSGS17206.48 Fair NONE
952016-01-05 17:52:26PSTYesTV,RJUSGS17806.51 Fair NONE
942016-01-05 17:48:41PSTYesTV,RJUSGS18006.55 Fair NONE
932016-01-05 17:16:09PSTYesTV,RJUSGS15506.88 Fair NONE
922016-01-05 17:12:26PSTYesTV,RJUSGS17606.93 Fair NONE
912016-01-05 17:08:26PSTYesTV,RJUSGS17606.96 Fair NONE
902016-01-05 17:03:32PSTYesTV,RJUSGS16807.02 Fair NONE
892016-01-05 16:23:26PSTYesTV,RJUSGS15307.40 Fair NONE
882016-01-05 16:18:45PSTYesTV,RJUSGS13007.44 Fair NONE
872016-01-05 16:14:42PSTYesTV,RJUSGS13207.47 Fair NONE
862016-01-05 16:10:26PSTYesTV,RJUSGS13507.51 Fair NONE
852016-01-05 15:46:50PSTYesTV,RJUSGS10707.70 Fair NONE
842016-01-05 15:42:50PSTYesTV,RJUSGS10607.73 Fair NONE
832016-01-05 15:38:28PSTYesTV,RJUSGS9367.77 Fair NONE
822016-01-05 15:33:56PSTYesTV,RJUSGS9147.81 Fair NONE
812016-01-05 14:07:39PSTYesTV,RJUSGS-12408.35 Fair NONE
802016-01-05 14:04:09PSTYesTV,RJUSGS-11208.35 Fair NONE
792016-01-05 13:59:16PSTYesTV,RJUSGS-12008.34 Fair NONE
782016-01-05 13:53:58PSTYesTV,RJUSGS-12908.34 Fair NONE
772016-01-05 13:26:09PSTYesTV,RJUSGS-13608.26 Fair NONE
762016-01-05 13:22:37PSTYesTV,RJUSGS-13308.25 Fair NONE
752016-01-05 13:18:51PSTYesTV,RJUSGS-14408.24 Fair NONE
742016-01-05 13:14:12PSTYesTV,RJUSGS-13508.21 Fair NONE
732016-01-05 13:09:46PSTYesTV,RJUSGS-14708.19 Fair NONE
722016-01-05 13:06:20PSTYesTV,RJUSGS-13108.17 Fair NONE
712016-01-05 12:40:56PSTYesTV,RJUSGS-15008.03 Fair NONE
702016-01-05 12:37:33PSTYesTV,RJUSGS-13708.01 Fair NONE
692016-01-05 12:33:35PSTYesTV,RJUSGS-15007.99 Fair NONE
682016-01-05 12:29:37PSTYesTV,RJUSGS-13807.96 Fair NONE
672016-01-05 12:00:07PSTYesTV,RJUSGS-13107.74 Fair NONE
662016-01-05 11:56:40PSTYesTV,RJUSGS-12907.71 Fair NONE
652016-01-05 11:53:23PSTYesTV,RJUSGS-13007.68 Fair NONE
642016-01-05 11:50:12PSTYesTV,RJUSGS-13307.65 Fair NONE
632016-01-05 11:46:17PSTYesTV,RJUSGS-12507.62 Fair NONE
622016-01-05 11:42:20PSTYesTV,RJUSGS-12607.59 Fair NONE
612016-01-05 10:54:50PSTYesTV,RJUSGS-14607.12 Fair NONE
602016-01-05 10:50:45PSTYesTV,RJUSGS-12907.07 Fair NONE
592016-01-05 10:46PSTYesTV,RJUSGS-12907.02 Fair NONE
582016-01-05 10:41:33PSTYesTV,RJUSGS-13806.97 Fair NONE
572016-01-05 10:11:06PSTYesTV,RJUSGS-16306.61 Fair NONE
562016-01-05 10:07:06PSTYesTV,RJUSGS-13706.57 Fair NONE
552016-01-05 10:03:35PSTYesTV,RJUSGS-14206.53 Fair NONE
542015-02-04 19:39PSTYesnanUSGS1470 Good NONE
532015-02-04 19:36PSTYesnanUSGS1260 Good NONE
522015-02-04 19:31PSTYesnanUSGS1460 Good NONE
512015-02-04 19:29PSTYesnanUSGS1170 Good NONE
502015-02-04 19:10PSTYesnanUSGS1250 Good NONE
492015-02-04 19:07PSTYesnanUSGS1210 Good NONE
482015-02-04 19:04PSTYesnanUSGS1210 Good NONE
472015-02-04 19:01PSTYesnanUSGS1110 Good NONE
462015-02-04 18:43PSTYesnanUSGS920 Good NONE
452015-02-04 18:40PSTYesnanUSGS954 Good NONE
442015-02-04 18:20PSTYesnanUSGS503 Good NONE
432015-02-04 18:17PSTYesnanUSGS384 Good NONE
422015-02-04 17:56PSTYesnanUSGS-111 Good NONE
412015-02-04 17:52PSTYesnanUSGS-218 Good NONE
402015-02-04 17:32PSTYesnanUSGS-583 Good NONE
392015-02-04 17:29PSTYesnanUSGS-558 Good NONE
382015-02-04 17:14PSTYesnanUSGS-730 Good NONE
372015-02-04 17:10PSTYesnanUSGS-786 Good NONE
362015-02-04 17:07PSTYesnanUSGS-910 Good NONE
352015-02-04 17:04PSTYesnanUSGS-888 Good NONE
342015-02-04 16:39PSTYesnanUSGS-979 Good NONE
332015-02-04 16:36PSTYesnanUSGS-1130 Good NONE
322015-02-04 16:31PSTYesnanUSGS-1060 Good NONE
312015-02-04 16:25PSTYesnanUSGS-1260 Good NONE
302015-02-04 15:56PSTYesnanUSGS-1080 Good NONE
292015-02-04 15:52PSTYesnanUSGS-1570 Good NONE
282015-02-04 15:48PSTYesnanUSGS-1370 Good NONE
272015-02-04 15:43PSTYesnanUSGS-1500 Good NONE
262015-02-04 15:17PSTYesnanUSGS-1360 Good NONE
252015-02-04 15:13PSTYesnanUSGS-1420 Good NONE
242015-02-04 14:30PSTYesnanUSGS-1470 Good NONE
232015-02-04 14:27PSTYesnanUSGS-1530 Good NONE
222015-02-04 14:19PSTYesnanUSGS-1280 Good NONE
212015-02-04 14:16PSTYesnanUSGS-1380 Good NONE
202015-02-04 13:55PSTYesnanUSGS-1080 Good NONE
192015-02-04 13:51PSTYesnanUSGS-1150 Good NONE
182015-02-04 13:36PSTYesnanUSGS-945 Good NONE
172015-02-04 13:33PSTYesnanUSGS-747 Good NONE
162015-02-04 13:08PSTYesnanUSGS-328 Good NONE
152015-02-04 13:03PSTYesnanUSGS-182 Good NONE
142015-02-04 12:40PSTYesnanUSGS393 Good NONE
132015-02-04 12:34PSTYesnanUSGS555 Good NONE
122015-02-04 11:59PSTYesnanUSGS843 Good NONE
112015-02-04 11:52PSTYesnanUSGS1000 Good NONE
102015-02-04 11:48PSTYesnanUSGS1070 Good NONE
92015-02-04 11:45PSTYesnanUSGS881 Good NONE
82015-02-04 11:11PSTYesnanUSGS1280 Good NONE
72015-02-04 11:07PSTYesnanUSGS1350 Good NONE
62015-02-04 11:02PSTYesnanUSGS1080 Good NONE
52015-02-04 10:58PSTYesnanUSGS1150 Good NONE
42015-02-04 10:25PSTYesnanUSGS1130 Good NONE
32015-02-04 10:21PSTYesnanUSGS1190 Good NONE
22015-02-04 10:16PSTYesnanUSGS1120 Good NONE
12015-02-04 10:11PSTYesnanUSGS1140 Good NONE